createdAt,value
2018-02-24T00:01:49.582Z,51.30
2018-02-24T00:04:18.060Z,43.03
2018-02-24T00:06:47.012Z,42.73
2018-02-24T00:09:16.261Z,48.20
2018-02-24T00:11:44.510Z,43.80
2018-02-24T00:14:12.978Z,43.43
2018-02-24T00:16:41.952Z,49.97
2018-02-24T00:19:11.568Z,48.93
2018-02-24T00:21:39.749Z,48.00
2018-02-24T00:24:08.774Z,47.50
2018-02-24T00:26:37.015Z,42.27
2018-02-24T00:29:06.451Z,44.27
2018-02-24T00:31:34.848Z,54.33
2018-02-24T00:34:03.958Z,41.10
2018-02-24T00:36:32.162Z,46.43
2018-02-24T00:39:00.360Z,39.83
2018-02-24T00:41:30.616Z,44.00
2018-02-24T00:44:00.078Z,45.70
2018-02-24T00:46:28.606Z,44.20
2018-02-24T00:48:57.632Z,47.40
2018-02-24T00:54:01.147Z,47.57
2018-02-24T00:56:30.166Z,49.10
2018-02-24T00:58:59.347Z,49.47
2018-02-24T01:01:29.565Z,52.07
2018-02-24T01:03:57.756Z,49.77
2018-02-24T01:06:26.086Z,46.57
2018-02-24T01:08:54.348Z,47.13
2018-02-24T01:11:22.572Z,48.17
2018-02-24T01:13:50.852Z,52.23
2018-02-24T01:16:19.110Z,56.93
2018-02-24T01:18:47.642Z,54.93
2018-02-24T01:21:15.899Z,53.33
2018-02-24T01:23:44.958Z,55.83
2018-02-24T01:26:13.482Z,49.80
2018-02-24T01:28:42.461Z,58.67
2018-02-24T01:31:10.768Z,56.97
2018-02-24T01:33:39.190Z,55.40
2018-02-24T01:36:08.129Z,56.57
2018-02-24T01:38:36.538Z,59.90
2018-02-24T01:41:04.766Z,54.63
2018-02-24T01:43:33.473Z,57.90
2018-02-24T01:46:01.740Z,53.60
2018-02-24T01:48:30.109Z,52.73
2018-02-24T01:50:59.302Z,57.50
2018-02-24T01:53:28.324Z,56.90
2018-02-24T01:58:24.377Z,52.30
2018-02-24T02:00:52.839Z,56.20
2018-02-24T02:03:21.093Z,60.27
2018-02-24T02:05:49.330Z,52.57
2018-02-24T02:08:18.300Z,59.23
2018-02-24T02:10:46.497Z,58.83
2018-02-24T02:13:14.715Z,60.37
2018-02-24T02:15:43.104Z,55.90
2018-02-24T02:18:12.159Z,55.27
2018-02-24T02:20:40.714Z,60.10
2018-02-24T02:23:08.998Z,53.77
2018-02-24T02:25:37.245Z,51.83
2018-02-24T02:28:06.596Z,57.03
2018-02-24T02:30:35.798Z,57.93
2018-02-24T02:33:04.034Z,57.67
2018-02-24T02:35:32.571Z,63.70
2018-02-24T02:38:00.774Z,58.33
2018-02-24T02:40:29.835Z,58.27
2018-02-24T02:42:58.089Z,63.03
2018-02-24T02:45:26.317Z,51.70
2018-02-24T02:47:55.291Z,54.00
2018-02-24T02:50:23.986Z,65.53
2018-02-24T02:52:52.314Z,60.70
2018-02-24T02:55:20.597Z,59.00
2018-02-24T02:57:48.805Z,65.43
2018-02-24T03:00:17.097Z,68.03
2018-02-24T03:02:46.066Z,63.70
2018-02-24T03:05:14.298Z,64.70
2018-02-24T03:07:43.324Z,61.10
2018-02-24T03:10:11.633Z,59.87
2018-02-24T03:12:39.830Z,65.93
2018-02-24T03:15:08.140Z,67.07
2018-02-24T03:17:36.467Z,73.57
2018-02-24T03:20:05.600Z,66.13
2018-02-24T03:22:33.812Z,64.83
2018-02-24T03:25:02.014Z,62.33
2018-02-24T03:27:31.005Z,66.93
2018-02-24T03:30:00.009Z,66.23
2018-02-24T03:32:28.218Z,60.33
2018-02-24T03:34:56.434Z,62.37
2018-02-24T03:37:24.696Z,64.37
2018-02-24T03:39:52.916Z,61.57
2018-02-24T03:42:21.118Z,59.13
2018-02-24T03:44:49.357Z,61.43
2018-02-24T03:47:18.325Z,64.03
2018-02-24T03:49:46.557Z,70.00
2018-02-24T03:52:14.862Z,65.17
2018-02-24T03:54:43.073Z,62.10
2018-02-24T03:57:12.045Z,63.97
2018-02-24T03:59:40.370Z,62.37
2018-02-24T04:02:08.616Z,63.90
2018-02-24T04:04:36.945Z,67.10
2018-02-24T04:07:05.204Z,66.80
2018-02-24T04:09:33.545Z,60.30
2018-02-24T04:12:02.557Z,63.77
2018-02-24T04:14:30.898Z,58.47
2018-02-24T04:16:59.109Z,69.50
2018-02-24T04:19:27.364Z,69.83
2018-02-24T04:21:56.566Z,63.70
2018-02-24T04:24:25.600Z,65.87
2018-02-24T04:26:53.831Z,63.10
2018-02-24T04:29:22.960Z,66.93
2018-02-24T04:31:51.164Z,69.50
2018-02-24T04:34:19.364Z,67.77
2018-02-24T04:36:47.600Z,66.33
2018-02-24T04:39:15.805Z,63.10
2018-02-24T04:41:44.118Z,67.20
2018-02-24T04:44:13.333Z,59.27
2018-02-24T04:46:42.361Z,61.73
2018-02-24T04:49:10.657Z,60.60
2018-02-24T04:51:38.969Z,61.97
2018-02-24T04:54:07.348Z,61.63
2018-02-24T04:56:35.693Z,66.43
2018-02-24T04:59:03.955Z,62.83
2018-02-24T05:01:32.200Z,70.63
2018-02-24T05:04:00.417Z,63.77
2018-02-24T05:06:28.898Z,66.63
2018-02-24T05:08:57.101Z,63.80
2018-02-24T05:11:26.062Z,71.37
2018-02-24T05:13:54.601Z,74.07
2018-02-24T05:16:22.796Z,69.63
2018-02-24T05:18:51.046Z,69.73
2018-02-24T05:21:19.260Z,75.43
2018-02-24T05:23:47.485Z,70.93
2018-02-24T05:26:15.688Z,65.93
2018-02-24T05:28:44.037Z,75.33
2018-02-24T05:31:12.400Z,66.33
2018-02-24T05:33:41.364Z,75.83
2018-02-24T05:36:09.621Z,70.80
2018-02-24T05:38:37.882Z,67.80
2018-02-24T05:41:06.132Z,61.07
2018-02-24T05:43:34.360Z,66.87
2018-02-24T05:46:02.564Z,67.40
2018-02-24T05:48:31.559Z,67.07
2018-02-24T05:50:59.866Z,66.17
2018-02-24T05:53:28.061Z,65.37
2018-02-24T05:55:56.285Z,64.90
2018-02-24T05:58:24.513Z,66.87
2018-02-24T06:00:52.734Z,74.43
2018-02-24T06:03:20.960Z,69.33
2018-02-24T06:05:49.188Z,72.50
2018-02-24T06:08:17.384Z,65.70
2018-02-24T06:10:45.659Z,66.33
2018-02-24T06:13:14.112Z,90.10
2018-02-24T06:15:42.321Z,86.03
2018-02-24T06:18:10.525Z,86.90
2018-02-24T06:20:38.760Z,77.30
2018-02-24T06:23:06.976Z,69.80
2018-02-24T06:25:35.187Z,79.67
2018-02-24T06:28:03.424Z,65.03
2018-02-24T06:30:31.756Z,66.70
2018-02-24T06:33:00.761Z,71.83
2018-02-24T06:35:29.065Z,61.83
2018-02-24T06:37:57.296Z,70.13
2018-02-24T06:40:26.537Z,64.23
2018-02-24T06:42:54.822Z,71.20
2018-02-24T06:45:23.058Z,63.17
2018-02-24T06:47:51.260Z,71.17
2018-02-24T06:50:19.549Z,65.63
2018-02-24T06:52:47.754Z,67.47
2018-02-24T06:55:15.957Z,78.13
2018-02-24T06:57:45.012Z,66.83
2018-02-24T07:00:13.328Z,68.80
2018-02-24T07:02:42.304Z,71.73
2018-02-24T07:05:11.384Z,71.07
2018-02-24T07:07:39.594Z,67.07
2018-02-24T07:10:08.594Z,69.73
2018-02-24T07:12:36.833Z,70.87
2018-02-24T07:15:05.036Z,65.83
2018-02-24T07:17:34.020Z,69.10
2018-02-24T07:20:03.048Z,67.33
2018-02-24T07:22:31.305Z,69.73
2018-02-24T07:24:59.552Z,68.37
2018-02-24T07:27:27.768Z,69.73
2018-02-24T07:29:56.004Z,65.83
2018-02-24T07:32:24.339Z,35.07
2018-02-24T07:34:52.597Z,31.83
2018-02-24T07:37:20.846Z,34.30
2018-02-24T07:39:49.871Z,35.03
2018-02-24T07:42:18.133Z,31.23
2018-02-24T07:44:46.357Z,29.97
2018-02-24T07:47:14.593Z,31.97
2018-02-24T07:49:42.836Z,30.20
2018-02-24T07:52:11.818Z,29.40
2018-02-24T07:54:40.852Z,33.53
2018-02-24T07:57:09.102Z,32.63
2018-02-24T07:59:37.305Z,30.83
2018-02-24T08:02:05.564Z,29.70
2018-02-24T08:04:33.806Z,30.00
2018-02-24T08:07:02.017Z,38.43
2018-02-24T08:11:53.849Z,32.10
2018-02-24T08:14:22.842Z,29.13
2018-02-24T08:16:51.979Z,28.00
2018-02-24T08:19:20.333Z,24.00
2018-02-24T08:21:48.650Z,30.67
2018-02-24T08:24:16.861Z,28.43
2018-02-24T08:26:46.505Z,25.83
2018-02-24T08:29:15.612Z,30.70
2018-02-24T08:31:43.905Z,28.20
2018-02-24T08:34:12.270Z,23.93
2018-02-24T08:36:40.651Z,21.67
2018-02-24T08:39:09.098Z,26.87
2018-02-24T08:41:38.182Z,33.20
2018-02-24T08:44:06.479Z,34.37
2018-02-24T08:46:34.747Z,32.07
2018-02-24T08:49:03.866Z,32.03
2018-02-24T08:51:32.933Z,32.90
2018-02-24T08:54:01.970Z,30.83
2018-02-24T08:56:30.199Z,32.07
2018-02-24T08:59:03.468Z,33.16
2018-02-24T09:01:31.713Z,29.00
2018-02-24T09:04:00.043Z,31.20
2018-02-24T09:06:28.276Z,31.10
2018-02-24T09:08:56.697Z,24.67
2018-02-24T09:11:25.669Z,27.43
2018-02-24T09:13:54.042Z,25.23
2018-02-24T09:16:22.280Z,18.80
2018-02-24T09:18:50.691Z,19.83
2018-02-24T09:21:19.632Z,16.57
2018-02-24T09:23:47.833Z,16.97
2018-02-24T09:26:16.057Z,17.43
2018-02-24T09:28:44.281Z,19.20
2018-02-24T09:31:12.670Z,17.73
2018-02-24T09:33:40.888Z,15.93
2018-02-24T09:36:09.108Z,16.03
2018-02-24T09:38:37.399Z,16.33
2018-02-24T09:41:05.598Z,15.93
2018-02-24T09:43:33.849Z,15.67
2018-02-24T09:46:02.209Z,16.77
2018-02-24T09:48:30.563Z,15.40
2018-02-24T09:50:59.540Z,16.20
2018-02-24T09:53:28.610Z,19.07
2018-02-24T09:55:56.848Z,15.37
2018-02-24T09:58:25.180Z,14.00
2018-02-24T10:00:53.430Z,14.67
2018-02-24T10:03:21.638Z,13.93
2018-02-24T10:05:50.605Z,14.50
2018-02-24T10:08:18.903Z,13.73
2018-02-24T10:10:47.068Z,14.83
2018-02-24T10:13:15.394Z,14.17
2018-02-24T10:15:43.673Z,15.30
2018-02-24T10:18:11.889Z,17.20
2018-02-24T10:20:40.097Z,13.20
2018-02-24T10:23:09.131Z,14.70
2018-02-24T10:25:37.340Z,14.07
2018-02-24T10:28:05.545Z,13.50
2018-02-24T10:30:33.792Z,14.13
2018-02-24T10:33:02.040Z,14.30
2018-02-24T10:35:30.291Z,13.07
2018-02-24T10:37:58.589Z,12.77
2018-02-24T10:40:26.907Z,12.90
2018-02-24T10:42:55.117Z,14.30
2018-02-24T10:45:24.088Z,20.13
2018-02-24T10:47:53.056Z,12.87
2018-02-24T10:50:21.265Z,13.37
2018-02-24T10:52:50.441Z,13.30
2018-02-24T10:55:19.420Z,15.47
2018-02-24T10:57:47.638Z,18.30
2018-02-24T11:00:16.407Z,14.70
2018-02-24T11:02:44.650Z,13.60
2018-02-24T11:05:12.842Z,12.80
2018-02-24T11:07:41.090Z,12.30
2018-02-24T11:10:09.324Z,13.63
2018-02-24T11:12:37.523Z,13.40
2018-02-24T11:15:05.776Z,13.13
2018-02-24T11:17:34.021Z,13.40
2018-02-24T11:20:02.219Z,13.43
2018-02-24T11:22:31.253Z,14.90
2018-02-24T11:24:59.448Z,14.27
2018-02-24T11:27:27.720Z,15.70
2018-02-24T11:29:56.017Z,14.30
2018-02-24T11:32:24.240Z,14.27
2018-02-24T11:34:52.443Z,12.90
2018-02-24T11:37:20.703Z,14.07
2018-02-24T11:39:48.899Z,15.83
2018-02-24T11:42:17.273Z,13.73
2018-02-24T11:44:45.554Z,14.60
2018-02-24T11:47:13.749Z,14.43
2018-02-24T11:49:42.722Z,13.97
2018-02-24T11:52:10.964Z,16.70
2018-02-24T11:54:39.161Z,16.27
2018-02-24T11:57:07.635Z,13.20
2018-02-24T11:59:35.878Z,14.50
2018-02-24T12:02:04.073Z,16.27
2018-02-24T12:04:32.310Z,17.13
2018-02-24T12:07:01.322Z,16.67
2018-02-24T12:09:29.577Z,14.87
2018-02-24T12:11:58.564Z,16.00
2018-02-24T12:14:26.778Z,15.67
2018-02-24T12:16:55.026Z,14.87
2018-02-24T12:19:24.838Z,15.40
2018-02-24T12:21:53.875Z,18.00
2018-02-24T12:24:22.061Z,15.00
2018-02-24T12:26:50.274Z,13.83
2018-02-24T12:29:18.562Z,13.60
2018-02-24T12:31:46.753Z,14.47
2018-02-24T12:34:15.667Z,16.07
2018-02-24T12:36:43.908Z,15.03
2018-02-24T12:39:12.116Z,14.00
2018-02-24T12:41:40.337Z,11.57
2018-02-24T12:44:09.350Z,11.70
2018-02-24T12:46:38.417Z,9.30
2018-02-24T12:49:06.552Z,10.83
2018-02-24T12:51:34.823Z,9.23
2018-02-24T12:54:03.013Z,9.27
2018-02-24T12:56:31.243Z,9.90
2018-02-24T12:58:59.457Z,10.20
2018-02-24T13:01:27.669Z,9.53
2018-02-24T13:03:55.902Z,11.10
2018-02-24T13:06:24.137Z,12.10
2018-02-24T13:08:53.124Z,11.17
2018-02-24T13:11:22.197Z,12.60
2018-02-24T13:13:50.430Z,12.90
2018-02-24T13:16:18.700Z,12.97
2018-02-24T13:18:47.682Z,12.23
2018-02-24T13:21:16.773Z,12.03
2018-02-24T13:23:45.736Z,19.10
2018-02-24T13:26:13.949Z,13.43
2018-02-24T13:28:42.981Z,13.77
2018-02-24T13:31:11.180Z,14.17
2018-02-24T13:33:39.485Z,15.20
2018-02-24T13:36:08.553Z,14.53
2018-02-24T13:38:36.793Z,14.40
2018-02-24T13:41:05.052Z,14.87
2018-02-24T13:43:33.391Z,14.07
2018-02-24T13:46:01.628Z,14.90
2018-02-24T13:48:29.833Z,14.43
2018-02-24T13:50:58.227Z,14.17
2018-02-24T13:53:26.412Z,14.47
2018-02-24T13:55:55.434Z,14.17
2018-02-24T13:58:23.717Z,13.23
2018-02-24T14:00:51.944Z,14.80
2018-02-24T14:03:20.381Z,14.27
2018-02-24T14:05:49.352Z,13.93
2018-02-24T14:08:17.568Z,14.20
2018-02-24T14:10:45.759Z,14.67
2018-02-24T14:13:14.048Z,15.07
2018-02-24T14:15:42.243Z,15.13
2018-02-24T14:18:11.209Z,14.20
2018-02-24T14:20:39.545Z,14.77
2018-02-24T14:23:07.804Z,15.50
2018-02-24T14:25:36.132Z,14.87
2018-02-24T14:28:04.371Z,14.73
2018-02-24T14:30:32.612Z,15.53
2018-02-24T14:33:01.642Z,15.40
2018-02-24T14:35:29.982Z,15.77
2018-02-24T14:37:58.953Z,15.83
2018-02-24T14:40:27.177Z,15.93
2018-02-24T14:42:55.495Z,14.53
2018-02-24T14:45:23.762Z,15.43
2018-02-24T14:47:51.977Z,17.20
2018-02-24T14:50:20.373Z,14.80
2018-02-24T14:52:49.345Z,17.10
2018-02-24T14:55:18.357Z,16.03
2018-02-24T14:57:47.392Z,15.57
2018-02-24T15:02:36.520Z,15.17
2018-02-24T15:05:05.557Z,16.40
2018-02-24T15:07:33.758Z,15.80
2018-02-24T15:10:02.236Z,15.97
2018-02-24T15:12:30.624Z,16.90
2018-02-24T15:14:59.113Z,15.23
2018-02-24T15:17:28.107Z,14.87
2018-02-24T15:19:56.416Z,16.30
2018-02-24T15:22:25.377Z,16.23
2018-02-24T15:24:53.737Z,15.33
2018-02-24T15:27:22.014Z,15.20
2018-02-24T15:29:50.421Z,15.73
2018-02-24T15:32:19.432Z,17.17
2018-02-24T15:34:48.450Z,18.80
2018-02-24T15:37:16.678Z,15.97
2018-02-24T15:39:45.646Z,15.20
2018-02-24T15:42:13.927Z,15.40
2018-02-24T15:44:42.125Z,14.90
2018-02-24T15:47:11.091Z,14.77
2018-02-24T15:49:39.535Z,15.10
2018-02-24T15:52:07.738Z,13.33
2018-02-24T15:54:35.933Z,13.33
2018-02-24T15:57:04.997Z,14.70
2018-02-24T15:59:33.261Z,14.13
2018-02-24T16:02:01.542Z,14.50
2018-02-24T16:04:29.874Z,13.03
2018-02-24T16:06:58.117Z,17.37
2018-02-24T16:09:26.387Z,15.47
2018-02-24T16:11:54.654Z,13.50
2018-02-24T16:14:22.980Z,12.80
2018-02-24T16:16:52.040Z,12.47
2018-02-24T16:19:20.319Z,12.77
2018-02-24T16:21:48.577Z,12.77
2018-02-24T16:24:16.796Z,12.63
2018-02-24T16:26:45.798Z,12.67
2018-02-24T16:29:14.769Z,12.47
2018-02-24T16:31:42.998Z,12.03
2018-02-24T16:34:11.300Z,12.33
2018-02-24T16:36:39.545Z,12.53
2018-02-24T16:39:07.762Z,12.63
2018-02-24T16:41:35.997Z,13.90
2018-02-24T16:44:04.269Z,12.33
2018-02-24T16:46:33.262Z,12.57
2018-02-24T16:49:01.495Z,12.43
2018-02-24T16:51:29.709Z,11.13
2018-02-24T16:53:57.946Z,12.23
2018-02-24T16:56:26.188Z,11.53
2018-02-24T17:03:21.162Z,13.40
2018-02-24T17:05:50.133Z,12.73
2018-02-24T17:08:18.379Z,12.77
2018-02-24T17:10:46.629Z,12.53
2018-02-24T17:13:14.850Z,13.40
2018-02-24T17:15:43.053Z,13.10
2018-02-24T17:18:12.109Z,12.97
2018-02-24T17:20:40.320Z,13.23
2018-02-24T17:23:09.365Z,12.73
2018-02-24T17:25:38.877Z,13.10
2018-02-24T17:28:07.141Z,12.37
2018-02-24T17:30:35.344Z,12.53
2018-02-24T17:33:03.671Z,12.20
2018-02-24T17:35:32.710Z,11.70
2018-02-24T17:38:01.041Z,12.97
2018-02-24T17:40:30.125Z,13.20
2018-02-24T17:42:58.328Z,12.77
2018-02-24T17:45:26.589Z,12.67
2018-02-24T17:47:54.845Z,12.37
2018-02-24T17:50:23.914Z,12.97
2018-02-24T17:52:52.151Z,12.23
2018-02-24T17:55:20.438Z,11.47
2018-02-24T17:57:48.658Z,12.47
2018-02-24T18:00:16.973Z,12.67
2018-02-24T18:02:46.070Z,12.53
2018-02-24T18:05:14.286Z,12.83
2018-02-24T18:07:42.547Z,12.80
2018-02-24T18:10:10.806Z,12.40
2018-02-24T18:12:39.138Z,12.57
2018-02-24T18:15:07.345Z,13.70
2018-02-24T18:17:35.617Z,11.90
2018-02-24T18:20:04.667Z,13.63
2018-02-24T18:22:32.872Z,13.40
2018-02-24T18:25:01.930Z,12.77
2018-02-24T18:27:30.141Z,12.93
2018-02-24T18:29:59.189Z,13.17
2018-02-24T18:32:27.489Z,13.43
2018-02-24T18:34:55.734Z,12.93
2018-02-24T18:37:24.769Z,12.87
2018-02-24T18:39:53.018Z,13.80
2018-02-24T18:42:21.281Z,14.37
2018-02-24T18:44:49.477Z,13.63
2018-02-24T18:47:17.811Z,13.47
2018-02-24T18:49:46.052Z,13.30
2018-02-24T18:52:14.285Z,14.03
2018-02-24T18:54:42.562Z,14.50
2018-02-24T18:57:10.797Z,13.93
2018-02-24T18:59:39.775Z,14.73
2018-02-24T19:02:08.078Z,12.83
2018-02-24T19:04:36.327Z,14.43
2018-02-24T19:07:04.525Z,13.63
2018-02-24T19:09:32.792Z,14.73
2018-02-24T19:12:01.769Z,14.57
2018-02-24T19:14:29.980Z,16.63
2018-02-24T19:16:58.969Z,14.70
2018-02-24T19:19:27.194Z,14.10
2018-02-24T19:21:55.401Z,13.70
2018-02-24T19:24:24.437Z,13.90
2018-02-24T19:26:52.655Z,14.87
2018-02-24T19:29:20.850Z,14.33
2018-02-24T19:31:49.904Z,13.53
2018-02-24T19:34:18.097Z,14.77
2018-02-24T19:36:46.344Z,14.80
2018-02-24T19:39:14.586Z,15.07
2018-02-24T19:41:42.811Z,14.30
2018-02-24T19:44:11.077Z,14.40
2018-02-24T19:46:39.321Z,14.87
2018-02-24T19:49:07.558Z,15.10
2018-02-24T19:51:36.533Z,14.97
2018-02-24T19:54:04.780Z,13.73
2018-02-24T19:56:33.053Z,15.10
2018-02-24T19:59:01.265Z,15.63
2018-02-24T20:01:29.493Z,14.53
2018-02-24T20:03:57.767Z,15.00
2018-02-24T20:06:26.544Z,15.53
2018-02-24T20:08:54.826Z,15.80
2018-02-24T20:11:23.033Z,16.00
2018-02-24T20:13:51.251Z,15.73
2018-02-24T20:16:19.530Z,15.70
2018-02-24T20:18:48.506Z,15.73
2018-02-24T20:21:16.722Z,14.33
2018-02-24T20:23:44.969Z,15.23
2018-02-24T20:28:48.661Z,15.33
2018-02-24T20:31:16.879Z,15.93
2018-02-24T20:33:45.861Z,17.40
2018-02-24T20:36:14.948Z,17.27
2018-02-24T20:38:43.921Z,16.73
2018-02-24T20:41:12.121Z,16.53
2018-02-24T20:43:41.165Z,16.63
2018-02-24T20:46:09.389Z,17.13
2018-02-24T20:48:38.360Z,15.83
2018-02-24T20:51:06.725Z,16.23
2018-02-24T20:53:35.040Z,17.17
2018-02-24T20:56:03.377Z,15.23
2018-02-24T20:58:31.654Z,16.37
2018-02-24T21:01:00.015Z,16.50
2018-02-24T21:03:28.622Z,16.60
2018-02-24T21:05:56.808Z,15.97
2018-02-24T21:08:25.011Z,16.50
2018-02-24T21:10:54.003Z,16.87
2018-02-24T21:13:22.999Z,16.83
2018-02-24T21:15:51.972Z,16.83
2018-02-24T21:18:20.166Z,17.10
2018-02-24T21:20:49.238Z,17.20
2018-02-24T21:23:17.501Z,16.17
2018-02-24T21:25:45.733Z,16.90
2018-02-24T21:28:14.196Z,16.90
2018-02-24T21:30:43.234Z,17.83
2018-02-24T21:33:11.440Z,16.53
2018-02-24T21:35:39.691Z,17.23
2018-02-24T21:38:07.913Z,17.33
2018-02-24T21:40:36.165Z,21.67
2018-02-24T21:43:04.439Z,16.80
2018-02-24T21:45:32.868Z,17.13
2018-02-24T21:48:01.602Z,18.03
2018-02-24T21:50:29.850Z,17.47
2018-02-24T21:52:58.060Z,17.80
2018-02-24T21:55:26.280Z,17.67
2018-02-24T21:57:54.697Z,17.83
2018-02-24T22:00:22.956Z,16.63
2018-02-24T22:02:51.196Z,17.77
2018-02-24T22:05:20.281Z,17.57
2018-02-24T22:07:49.617Z,17.57
2018-02-24T22:10:19.064Z,21.03
2018-02-24T22:12:47.381Z,18.57
2018-02-24T22:15:16.450Z,16.47
2018-02-24T22:17:44.677Z,19.33
2018-02-24T22:20:12.916Z,19.00
2018-02-24T22:22:41.899Z,19.23
2018-02-24T22:25:10.898Z,18.37
2018-02-24T22:27:39.931Z,22.37
2018-02-24T22:30:08.158Z,19.80
2018-02-24T22:32:37.128Z,20.07
2018-02-24T22:35:05.368Z,19.57
2018-02-24T22:37:33.584Z,21.10
2018-02-24T22:40:01.811Z,19.50
2018-02-24T22:42:30.060Z,22.70
2018-02-24T22:44:58.262Z,20.77
2018-02-24T22:47:26.465Z,21.73
2018-02-24T22:49:54.746Z,24.97
2018-02-24T22:52:22.951Z,21.67
2018-02-24T22:54:51.917Z,22.53
2018-02-24T22:57:20.187Z,23.63
2018-02-24T22:59:49.088Z,23.80
2018-02-24T23:02:18.036Z,23.67
2018-02-24T23:04:47.063Z,24.03
2018-02-24T23:07:15.340Z,26.57
2018-02-24T23:09:43.586Z,25.17
2018-02-24T23:12:12.623Z,22.60
2018-02-24T23:14:40.852Z,24.57
2018-02-24T23:17:09.813Z,24.10
2018-02-24T23:19:38.134Z,25.90
2018-02-24T23:22:06.393Z,26.03
2018-02-24T23:24:36.857Z,24.77
2018-02-24T23:27:05.308Z,26.30
2018-02-24T23:29:33.702Z,27.87
2018-02-24T23:32:01.902Z,25.30
2018-02-24T23:34:30.231Z,31.07
2018-02-24T23:36:59.940Z,26.00
2018-02-24T23:39:28.987Z,27.57
2018-02-24T23:41:57.253Z,30.40
2018-02-24T23:44:25.524Z,25.23
2018-02-24T23:46:54.485Z,25.23
2018-02-24T23:49:23.529Z,24.53
2018-02-24T23:51:51.744Z,26.37
2018-02-24T23:54:20.800Z,25.33
2018-02-24T23:56:49.096Z,27.03
2018-02-24T23:59:17.502Z,25.90
